Time;durP1;ratioP1;P1;durP2;ratioP2;P2;SDS_P1;SDS_P2;PMS_P1;PMS_P2;Temp;Humidity;BMP_temperature;BMP_pressure;BME280_temperature;BME280_humidity;BME280_pressure;Samples;Min_cycle;Max_cycle;Signal;HPM_P1;HPM_P2
2023/06/08 00:00:12;;;;;;;1999.90;999.90;;;;;;;23.46;43.72;102059.50;5072215;28;20024;-73
2023/06/08 00:02:38;;;;;;;1999.90;999.90;;;;;;;23.10;44.94;102062.84;5066312;28;20024;-73
2023/06/08 00:05:04;;;;;;;1999.90;999.90;;;;;;;23.86;43.18;102056.81;5056021;28;20480;-74
2023/06/08 00:07:30;;;;;;;1999.90;999.90;;;;;;;23.91;42.43;102059.31;5073956;28;20028;-74
2023/06/08 00:09:57;;;;;;;1999.90;999.90;;;;;;;24.18;42.03;102052.66;5080337;28;20036;-73
2023/06/08 00:12:24;;;;;;;1999.90;999.90;;;;;;;24.27;42.84;102061.16;5075934;28;20020;-74
2023/06/08 00:14:50;;;;;;;1999.90;999.90;;;;;;;22.56;45.87;102058.94;5074575;28;20116;-74
2023/06/08 00:17:15;;;;;;;1999.90;999.90;;;;;;;24.01;42.61;102049.94;5074543;28;20106;-73
2023/06/08 00:19:45;;;;;;;1999.90;999.90;;;;;;;23.14;45.06;102048.50;5068493;28;20035;-74
2023/06/08 00:22:12;;;;;;;1999.90;999.90;;;;;;;22.06;46.69;102047.56;5055862;28;20027;-74
2023/06/08 00:24:38;;;;;;;1999.90;999.90;;;;;;;23.28;45.30;102049.69;5075400;28;20375;-74
2023/06/08 00:27:05;;;;;;;1999.90;999.90;;;;;;;23.78;43.13;102043.84;5075924;28;20134;-74
2023/06/08 00:29:31;;;;;;;1999.90;999.90;;;;;;;23.70;43.71;102046.00;5093801;28;20054;-73
2023/06/08 00:31:56;;;;;;;1999.90;999.90;;;;;;;24.09;43.08;102045.09;5073584;28;20057;-74
2023/06/08 00:34:22;;;;;;;1999.90;999.90;;;;;;;23.12;44.90;102049.44;5093836;28;20031;-74
2023/06/08 00:36:47;;;;;;;1999.90;999.90;;;;;;;23.79;43.58;102042.03;5074326;28;20062;-73
2023/06/08 00:39:13;;;;;;;1999.90;999.90;;;;;;;22.78;44.85;102035.78;5067170;28;20020;-74
2023/06/08 00:41:38;;;;;;;1999.90;999.90;;;;;;;23.41;44.43;102032.19;5073181;28;20451;-73
2023/06/08 00:44:06;;;;;;;1999.90;999.90;;;;;;;23.50;43.17;102034.44;5073120;28;20074;-73
2023/06/08 00:46:31;;;;;;;1999.90;999.90;;;;;;;23.56;43.40;102027.94;5054773;28;20031;-73
2023/06/08 00:48:58;;;;;;;1999.90;999.90;;;;;;;22.77;45.74;102023.38;5055449;28;20013;-73
2023/06/08 00:51:28;;;;;;;1999.90;999.90;;;;;;;21.47;48.26;102025.81;5076014;28;20031;-74
2023/06/08 00:53:56;;;;;;;1999.90;999.90;;;;;;;23.08;44.79;102026.53;5064029;28;20031;-73
2023/06/08 00:56:26;;;;;;;1999.90;999.90;;;;;;;22.27;46.59;102011.22;5035285;28;20025;-75
2023/06/08 00:58:55;;;;;;;1999.90;999.90;;;;;;;22.64;45.50;102007.06;5063077;28;20480;-74
2023/06/08 01:01:20;;;;;;;1999.90;999.90;;;;;;;22.88;45.51;102010.47;5073224;28;20025;-73
2023/06/08 01:03:46;;;;;;;1999.90;999.90;;;;;;;23.56;44.10;102011.94;5072677;28;20028;-73
2023/06/08 01:06:16;;;;;;;1999.90;999.90;;;;;;;23.18;44.04;102012.75;5072380;28;20047;-74
2023/06/08 01:08:52;;;;;;;1999.90;999.90;;;;;;;23.53;43.59;102012.97;5055354;28;20127;-73
2023/06/08 01:11:52;;;;;;;1999.90;999.90;;;;;;;22.97;44.91;102016.31;5060796;28;20040;-73
2023/06/08 01:14:29;;;;;;;1999.90;999.90;;;;;;;21.90;46.55;102022.47;5048519;28;20037;-74
2023/06/08 01:17:00;;;;;;;1999.90;999.90;;;;;;;22.98;44.80;102020.72;5054861;28;20079;-73
2023/06/08 01:19:33;;;;;;;1999.90;999.90;;;;;;;23.57;43.40;102019.00;5055308;28;20024;-73
2023/06/08 01:22:23;;;;;;;1999.90;999.90;;;;;;;22.91;44.84;102008.63;5052014;28;20594;-74
2023/06/08 01:24:52;;;;;;;1999.90;999.90;;;;;;;22.97;44.38;102005.66;5035497;28;20067;-73
2023/06/08 01:27:20;;;;;;;1999.90;999.90;;;;;;;23.41;43.53;102002.84;5034801;28;20036;-74
2023/06/08 01:29:47;;;;;;;1999.90;999.90;;;;;;;22.02;46.58;102011.34;5035111;28;20439;-74
2023/06/08 01:32:12;;;;;;;1999.90;999.90;;;;;;;23.93;42.58;102007.56;5052707;28;20056;-73
2023/06/08 01:34:39;;;;;;;1999.90;999.90;;;;;;;22.74;44.93;102004.88;5033678;28;20052;-75
2023/06/08 01:37:24;;;;;;;1999.90;999.90;;;;;;;22.77;44.16;102002.06;5035296;28;20033;-75
2023/06/08 01:39:49;;;;;;;1999.90;999.90;;;;;;;22.68;44.48;101997.13;5043951;28;20032;-73
2023/06/08 01:42:19;;;;;;;1999.90;999.90;;;;;;;22.61;44.92;101995.66;5054611;28;20463;-73
2023/06/08 01:44:51;;;;;;;1999.90;999.90;;;;;;;21.92;45.91;101996.66;5064118;28;20028;-74
2023/06/08 01:47:17;;;;;;;1999.90;999.90;;;;;;;21.44;46.82;101991.34;5034917;28;20021;-75
2023/06/08 01:49:45;;;;;;;1999.90;999.90;;;;;;;22.45;45.39;101995.44;5033941;28;20036;-73
2023/06/08 01:52:11;;;;;;;1999.90;999.90;;;;;;;22.60;44.71;101994.81;5044220;28;20035;-74
2023/06/08 01:54:36;;;;;;;1999.90;999.90;;;;;;;21.94;46.31;101989.47;5061331;28;20044;-73
2023/06/08 01:57:03;;;;;;;1999.90;999.90;;;;;;;22.80;43.43;101991.28;5063528;28;20039;-73
2023/06/08 01:59:28;;;;;;;1999.90;999.90;;;;;;;22.61;43.70;101985.88;5092504;28;20028;-73
2023/06/08 02:01:53;;;;;;;1999.90;999.90;;;;;;;21.76;46.15;101985.75;5065611;28;20311;-74
2023/06/08 02:04:19;;;;;;;1999.90;999.90;;;;;;;20.48;47.91;101977.88;5071682;28;20380;-75
2023/06/08 02:06:45;;;;;;;1999.90;999.90;;;;;;;21.65;46.02;101983.50;5071811;28;20058;-73
2023/06/08 02:09:10;;;;;;;1999.90;999.90;;;;;;;21.30;46.65;101986.53;5054264;28;20017;-74
2023/06/08 02:11:35;;;;;;;1999.90;999.90;;;;;;;22.66;43.45;101983.03;5053861;28;20020;-76
2023/06/08 02:14:03;;;;;;;1999.90;999.90;;;;;;;21.74;44.90;101987.63;5071653;28;20024;-73
2023/06/08 02:16:28;;;;;;;1999.90;999.90;;;;;;;20.83;47.34;101992.63;5073738;28;20031;-75
2023/06/08 02:18:53;;;;;;;1999.90;999.90;;;;;;;21.49;46.41;101986.72;5064537;28;20559;-75
2023/06/08 02:21:19;;;;;;;1999.90;999.90;;;;;;;21.82;46.04;101990.84;5054448;28;20059;-74
2023/06/08 02:23:44;;;;;;;1999.90;999.90;;;;;;;22.67;43.87;101995.41;5053243;28;20150;-74
2023/06/08 02:26:10;;;;;;;1999.90;999.90;;;;;;;21.79;45.92;102007.78;5071919;28;20380;-75
2023/06/08 02:28:35;;;;;;;1999.90;999.90;;;;;;;21.88;45.08;101995.91;5053038;28;20388;-74
2023/06/08 02:31:03;;;;;;;1999.90;999.90;;;;;;;21.00;46.83;101999.16;5071703;28;20028;-74
2023/06/08 02:33:28;;;;;;;1999.90;999.90;;;;;;;22.15;44.08;101993.94;5053903;28;20017;-74
2023/06/08 02:35:54;;;;;;;1999.90;999.90;;;;;;;23.13;42.48;102003.22;5067668;28;20081;-74
2023/06/08 02:38:20;;;;;;;1999.90;999.90;;;;;;;23.40;41.94;102001.13;5080383;28;20031;-74
2023/06/08 02:40:45;;;;;;;1999.90;999.90;;;;;;;22.26;44.24;102004.16;5079353;28;20028;-73
2023/06/08 02:43:11;;;;;;;1999.90;999.90;;;;;;;22.98;42.85;102004.75;5065067;28;20035;-74
2023/06/08 02:45:37;;;;;;;1999.90;999.90;;;;;;;22.16;43.92;102011.66;5072697;28;20051;-75
2023/06/08 02:48:03;;;;;;;1999.90;999.90;;;;;;;21.58;46.12;102000.63;5053370;28;20480;-74
2023/06/08 02:50:28;;;;;;;1999.90;999.90;;;;;;;22.50;43.05;101994.34;5053791;28;20085;-75
2023/06/08 02:52:54;;;;;;;1999.90;999.90;;;;;;;21.79;44.35;101991.81;5071176;28;20457;-75
2023/06/08 02:55:20;;;;;;;1999.90;999.90;;;;;;;22.65;43.11;101986.59;5083691;28;20056;-75
2023/06/08 02:57:49;;;;;;;1999.90;999.90;;;;;;;21.09;45.38;101990.84;5053024;28;20392;-75
2023/06/08 03:00:15;;;;;;;1999.90;999.90;;;;;;;22.00;44.16;101991.91;5052584;28;20063;-75
2023/06/08 03:02:40;;;;;;;1999.90;999.90;;;;;;;22.26;43.37;101997.97;5053039;28;20032;-74
2023/06/08 03:05:06;;;;;;;1999.90;999.90;;;;;;;22.38;44.00;102000.19;5071732;28;20029;-75
2023/06/08 03:07:33;;;;;;;1999.90;999.90;;;;;;;21.42;44.89;102006.50;5070208;28;20020;-75
2023/06/08 03:10:00;;;;;;;1999.90;999.90;;;;;;;21.76;44.12;101994.63;5076812;28;20051;-73
2023/06/08 03:12:25;;;;;;;1999.90;999.90;;;;;;;21.19;44.98;101994.03;5090814;28;20023;-75
2023/06/08 03:14:50;;;;;;;1999.90;999.90;;;;;;;20.57;47.52;101993.50;5073337;28;20016;-76
2023/06/08 03:17:17;;;;;;;1999.90;999.90;;;;;;;21.15;45.47;101995.09;5073777;28;20127;-75
2023/06/08 03:19:45;;;;;;;1999.90;999.90;;;;;;;20.95;46.14;101985.16;5072504;28;20020;-75
2023/06/08 03:22:11;;;;;;;1999.90;999.90;;;;;;;21.17;44.90;101978.16;5060387;28;20028;-75
2023/06/08 03:24:36;;;;;;;1999.90;999.90;;;;;;;21.44;44.58;101985.16;5083092;28;20031;-76
2023/06/08 03:27:03;;;;;;;1999.90;999.90;;;;;;;21.61;45.08;101992.53;5040982;28;20032;-75
2023/06/08 03:29:30;;;;;;;1999.90;999.90;;;;;;;21.69;43.80;101980.69;5052589;28;20591;-75
2023/06/08 03:31:56;;;;;;;1999.90;999.90;;;;;;;21.71;45.04;101987.72;5079438;28;20097;-75
2023/06/08 03:34:25;;;;;;;1999.90;999.90;;;;;;;21.93;44.31;101985.97;5072953;28;20045;-75
2023/06/08 03:36:51;;;;;;;1999.90;999.90;;;;;;;21.97;44.42;101989.38;5091802;28;20031;-75
2023/06/08 03:39:17;;;;;;;1999.90;999.90;;;;;;;21.57;44.88;101996.22;5069107;28;20039;-74
2023/06/08 03:41:42;;;;;;;1999.90;999.90;;;;;;;21.59;45.41;101994.38;5094080;28;20032;-75
2023/06/08 03:44:08;;;;;;;1999.90;999.90;;;;;;;22.06;43.93;101989.00;5066131;28;20031;-75
2023/06/08 03:46:33;;;;;;;1999.90;999.90;;;;;;;20.53;46.99;101983.06;5057210;28;20074;-74
2023/06/08 03:48:58;;;;;;;1999.90;999.90;;;;;;;21.16;45.56;101987.03;5090131;28;20107;-74
2023/06/08 03:51:25;;;;;;;1999.90;999.90;;;;;;;21.10;46.66;101986.41;5077083;28;20089;-74
2023/06/08 03:53:51;;;;;;;1999.90;999.90;;;;;;;20.74;46.89;101992.94;5094169;28;20394;-73
2023/06/08 03:56:17;;;;;;;1999.90;999.90;;;;;;;21.90;44.10;101988.75;5075773;28;20032;-75
2023/06/08 03:58:42;;;;;;;1999.90;999.90;;;;;;;19.94;48.72;101987.59;5074271;28;20020;-74
2023/06/08 04:01:12;;;;;;;1999.90;999.90;;;;;;;20.91;46.60;101991.50;5080419;28;20492;-73
2023/06/08 04:03:38;;;;;;;1999.90;999.90;;;;;;;21.62;45.63;101994.25;5055372;28;20139;-74
2023/06/08 04:06:05;;;;;;;1999.90;999.90;;;;;;;21.47;45.57;101996.56;5056258;28;20107;-75
2023/06/08 04:08:31;;;;;;;1999.90;999.90;;;;;;;22.28;44.17;101990.78;5074342;28;20026;-74
2023/06/08 04:11:00;;;;;;;1999.90;999.90;;;;;;;22.65;42.65;101991.94;5088048;28;20024;-74
2023/06/08 04:13:25;;;;;;;1999.90;999.90;;;;;;;21.14;45.61;101993.34;5057117;28;20020;-73
2023/06/08 04:15:51;;;;;;;1999.90;999.90;;;;;;;21.16;46.74;101997.69;5054952;28;20493;-74
2023/06/08 04:18:16;;;;;;;1999.90;999.90;;;;;;;22.49;43.96;101995.25;5068000;28;20048;-74
2023/06/08 04:20:42;;;;;;;1999.90;999.90;;;;;;;22.33;43.56;101986.16;5073698;28;20073;-73
2023/06/08 04:23:07;;;;;;;1999.90;999.90;;;;;;;22.30;43.68;101992.47;5075622;28;20016;-73
2023/06/08 04:25:32;;;;;;;1999.90;999.90;;;;;;;22.36;43.35;101988.69;5075390;28;20383;-74
2023/06/08 04:27:58;;;;;;;1999.90;999.90;;;;;;;21.34;45.85;101989.97;5092863;28;20024;-73
2023/06/08 04:30:23;;;;;;;1999.90;999.90;;;;;;;22.08;43.98;101981.81;5073173;28;20383;-74
2023/06/08 04:32:49;;;;;;;1999.90;999.90;;;;;;;21.50;45.20;101980.47;5077917;28;20492;-73
2023/06/08 04:35:14;;;;;;;1999.90;999.90;;;;;;;21.50;45.93;101985.81;5074354;28;20056;-74
2023/06/08 04:37:41;;;;;;;1999.90;999.90;;;;;;;21.08;47.04;101983.78;5072686;28;20021;-73
2023/06/08 04:40:09;;;;;;;1999.90;999.90;;;;;;;20.88;47.59;101971.22;5055407;28;20041;-73
2023/06/08 04:42:39;;;;;;;1999.90;999.90;;;;;;;22.00;44.78;101974.13;5055544;28;20021;-73
2023/06/08 04:45:08;;;;;;;1999.90;999.90;;;;;;;21.08;46.55;101983.78;5072479;28;20025;-74
2023/06/08 04:47:36;;;;;;;1999.90;999.90;;;;;;;22.18;44.67;101969.84;5055639;28;20021;-74
2023/06/08 04:50:02;;;;;;;1999.90;999.90;;;;;;;21.89;45.36;101970.19;5055396;28;20066;-74
2023/06/08 04:52:30;;;;;;;1999.90;999.90;;;;;;;22.69;43.45;101978.41;5068588;28;20031;-74
2023/06/08 04:55:00;;;;;;;1999.90;999.90;;;;;;;21.18;45.42;101979.91;5075069;28;20702;-74
2023/06/08 04:57:26;;;;;;;1999.90;999.90;;;;;;;21.80;45.39;101982.94;5075390;28;20426;-73
2023/06/08 04:59:51;;;;;;;1999.90;999.90;;;;;;;22.74;43.45;101980.91;5091400;28;20028;-74
2023/06/08 05:02:17;;;;;;;1999.90;999.90;;;;;;;22.67;42.99;101984.75;5075568;28;20031;-74
2023/06/08 05:04:42;;;;;;;1999.90;999.90;;;;;;;22.41;43.70;101985.84;5074356;28;20032;-74
2023/06/08 05:07:08;;;;;;;1999.90;999.90;;;;;;;22.32;43.93;101974.59;5074528;28;20392;-74
2023/06/08 05:09:33;;;;;;;1999.90;999.90;;;;;;;21.47;45.39;101975.28;5078284;28;20040;-73
2023/06/08 05:11:58;;;;;;;1999.90;999.90;;;;;;;21.52;45.83;101973.31;5054320;28;20480;-74
2023/06/08 05:14:24;;;;;;;1999.90;999.90;;;;;;;22.79;43.11;101973.56;5061099;28;20028;-74
2023/06/08 05:16:49;;;;;;;1999.90;999.90;;;;;;;22.90;42.73;101975.75;5093343;28;20024;-74
2023/06/08 05:19:15;;;;;;;1999.90;999.90;;;;;;;21.72;44.03;101979.69;5062939;28;20075;-74
2023/06/08 05:21:41;;;;;;;1999.90;999.90;;;;;;;21.39;45.95;101972.06;5073041;28;20028;-73
2023/06/08 05:24:07;;;;;;;1999.90;999.90;;;;;;;22.13;44.24;101973.63;5073163;28;20038;-74
2023/06/08 05:26:33;;;;;;;1999.90;999.90;;;;;;;22.08;44.75;101964.97;5068881;28;20028;-74
2023/06/08 05:28:58;;;;;;;1999.90;999.90;;;;;;;22.29;43.23;101969.41;5074891;28;20067;-73
2023/06/08 05:31:24;;;;;;;1999.90;999.90;;;;;;;22.43;43.72;101971.53;5091740;28;20035;-73
2023/06/08 05:33:50;;;;;;;1999.90;999.90;;;;;;;22.65;43.21;101970.63;5056958;28;20115;-74
2023/06/08 05:36:15;;;;;;;1999.90;999.90;;;;;;;21.90;44.50;101966.56;5055084;28;20024;-75
2023/06/08 05:38:40;;;;;;;1999.90;999.90;;;;;;;21.50;45.19;101964.53;5072335;28;20047;-75
2023/06/08 05:41:06;;;;;;;1999.90;999.90;;;;;;;23.24;43.50;101968.09;5054223;28;20102;-76
2023/06/08 05:43:31;;;;;;;1999.90;999.90;;;;;;;22.06;45.03;101966.84;5054859;28;20032;-75
2023/06/08 05:45:57;;;;;;;1999.90;999.90;;;;;;;22.61;43.96;101963.69;5054046;28;20488;-75
2023/06/08 05:48:22;;;;;;;1999.90;999.90;;;;;;;22.94;42.92;101957.81;5053986;28;20033;-74
2023/06/08 05:50:48;;;;;;;1999.90;999.90;;;;;;;23.92;41.25;101959.59;5054480;28;20035;-74
2023/06/08 05:53:13;;;;;;;1999.90;999.90;;;;;;;23.03;42.88;101960.09;5054734;28;20035;-75
2023/06/08 05:55:41;;;;;;;1999.90;999.90;;;;;;;23.93;41.31;101961.31;5072247;28;20090;-75
2023/06/08 05:58:07;;;;;;;1999.90;999.90;;;;;;;23.42;41.63;101959.22;5091531;28;20099;-75
2023/06/08 06:00:33;;;;;;;1999.90;999.90;;;;;;;23.09;42.05;101954.47;5091198;28;20511;-75
2023/06/08 06:02:58;;;;;;;1999.90;999.90;;;;;;;22.91;42.68;101950.81;5076676;28;20032;-75
2023/06/08 06:05:23;;;;;;;1999.90;999.90;;;;;;;24.27;40.31;101939.16;5054586;28;20054;-74
2023/06/08 06:07:49;;;;;;;1999.90;999.90;;;;;;;23.06;41.50;101954.59;5053572;28;20039;-75
2023/06/08 06:10:14;;;;;;;1999.90;999.90;;;;;;;22.86;43.31;101948.38;5071226;28;20033;-74
2023/06/08 06:12:40;;;;;;;1999.90;999.90;;;;;;;22.70;42.47;101949.97;5059825;28;20023;-74
2023/06/08 06:15:06;;;;;;;1999.90;999.90;;;;;;;23.19;41.53;101955.81;5073230;28;20024;-75
2023/06/08 06:17:31;;;;;;;1999.90;999.90;;;;;;;24.95;38.67;101945.50;5072199;28;20028;-75
2023/06/08 06:19:57;;;;;;;1999.90;999.90;;;;;;;25.52;37.31;101947.78;5073697;28;20092;-75
2023/06/08 06:22:22;;;;;;;1999.90;999.90;;;;;;;25.38;37.41;101953.91;5071324;28;20115;-73
2023/06/08 06:24:47;;;;;;;1999.90;999.90;;;;;;;23.96;39.65;101955.81;5069381;28;20035;-74
2023/06/08 06:27:13;;;;;;;1999.90;999.90;;;;;;;24.45;39.16;101949.84;5053563;28;20484;-73
2023/06/08 06:29:38;;;;;;;1999.90;999.90;;;;;;;25.26;37.84;101950.06;5055270;28;20521;-74
2023/06/08 06:32:04;;;;;;;1999.90;999.90;;;;;;;26.48;35.14;101951.22;5065297;28;20119;-75
2023/06/08 06:34:29;;;;;;;1999.90;999.90;;;;;;;24.43;38.39;101952.59;5066714;28;20045;-74
2023/06/08 06:36:56;;;;;;;1999.90;999.90;;;;;;;25.64;36.02;101952.47;5072579;28;20035;-74
2023/06/08 06:39:22;;;;;;;1999.90;999.90;;;;;;;26.20;36.15;101946.63;5073546;28;20111;-75
2023/06/08 06:41:48;;;;;;;1999.90;999.90;;;;;;;25.23;36.87;101956.44;5062934;28;20123;-73
2023/06/08 06:44:13;;;;;;;1999.90;999.90;;;;;;;26.86;34.16;101958.78;5083415;28;20032;-74
2023/06/08 06:46:40;;;;;;;1999.90;999.90;;;;;;;27.62;32.96;101958.59;5056115;28;20488;-73
2023/06/08 06:49:05;;;;;;;1999.90;999.90;;;;;;;29.21;30.75;101950.50;5083691;28;20032;-74
2023/06/08 06:51:30;;;;;;;1999.90;999.90;;;;;;;28.56;31.97;101942.47;5055890;28;20396;-75
2023/06/08 06:53:56;;;;;;;1999.90;999.90;;;;;;;28.41;31.76;101947.06;5080333;28;20034;-74
2023/06/08 06:56:21;;;;;;;1999.90;999.90;;;;;;;25.83;35.22;101954.97;5072872;28;20472;-75
2023/06/08 06:58:47;;;;;;;1999.90;999.90;;;;;;;27.05;33.56;101954.94;5056539;28;20032;-75
2023/06/08 07:01:12;;;;;;;1999.90;999.90;;;;;;;26.50;34.76;101949.31;5061858;28;20019;-74
2023/06/08 07:03:42;;;;;;;1999.90;999.90;;;;;;;27.17;34.23;101953.34;5072362;28;20030;-73
2023/06/08 07:06:09;;;;;;;1999.90;999.90;;;;;;;27.63;34.00;101949.53;5062452;28;20074;-74
2023/06/08 07:08:38;;;;;;;1999.90;999.90;;;;;;;24.28;39.05;101958.72;5069329;28;20064;-74
2023/06/08 07:11:03;;;;;;;1999.90;999.90;;;;;;;27.13;34.80;101955.34;5088001;28;20032;-75
2023/06/08 07:13:28;;;;;;;1999.90;999.90;;;;;;;27.79;32.94;101944.91;5090734;28;20042;-74
2023/06/08 07:15:54;;;;;;;1999.90;999.90;;;;;;;27.59;33.29;101960.50;5081557;28;20024;-75
2023/06/08 07:18:20;;;;;;;1999.90;999.90;;;;;;;28.53;31.90;101948.03;5064955;28;20092;-75
2023/06/08 07:20:46;;;;;;;1999.90;999.90;;;;;;;30.82;30.22;101941.25;5076890;28;20488;-74
2023/06/08 07:23:11;;;;;;;1999.90;999.90;;;;;;;31.42;27.64;101958.09;5070952;28;20028;-75
2023/06/08 07:25:37;;;;;;;1999.90;999.90;;;;;;;30.52;28.67;101953.50;5073554;28;20376;-74
2023/06/08 07:28:04;;;;;;;1999.90;999.90;;;;;;;31.97;27.76;101945.44;5061627;28;20073;-74
2023/06/08 07:30:31;;;;;;;1999.90;999.90;;;;;;;32.54;26.30;101942.47;5074785;28;20032;-75
2023/06/08 07:32:57;;;;;;;1999.90;999.90;;;;;;;31.31;27.76;101945.44;5058683;28;20032;-74
2023/06/08 07:35:22;;;;;;;1999.90;999.90;;;;;;;30.33;28.84;101948.63;5062250;28;20609;-73
2023/06/08 07:37:48;;;;;;;1999.90;999.90;;;;;;;28.10;31.62;101953.66;5081874;28;20483;-73
2023/06/08 07:40:17;;;;;;;1999.90;999.90;;;;;;;27.02;34.65;101960.50;5053340;28;20117;-74
2023/06/08 07:42:43;;;;;;;1999.90;999.90;;;;;;;26.35;35.79;101955.56;5082507;28;20024;-74
2023/06/08 07:45:08;;;;;;;1999.90;999.90;;;;;;;27.76;33.02;101955.84;5054954;28;20027;-73
2023/06/08 07:47:37;;;;;;;1999.90;999.90;;;;;;;28.26;32.64;101948.97;5065204;28;20020;-74
2023/06/08 07:50:02;;;;;;;1999.90;999.90;;;;;;;29.60;31.19;101952.19;5063054;28;20037;-73
2023/06/08 07:52:28;;;;;;;1999.90;999.90;;;;;;;28.68;31.94;101942.59;5085625;28;20034;-74
2023/06/08 07:54:53;;;;;;;1999.90;999.90;;;;;;;29.50;30.71;101940.38;5054667;28;20060;-74
2023/06/08 07:57:19;;;;;;;1999.90;999.90;;;;;;;28.99;31.29;101935.06;5063118;28;20031;-75
2023/06/08 07:59:44;;;;;;;1999.90;999.90;;;;;;;32.24;28.66;101933.31;5065271;28;20052;-74
2023/06/08 08:02:10;;;;;;;1999.90;999.90;;;;;;;31.88;27.85;101938.13;5071931;28;20023;-74
2023/06/08 08:04:36;;;;;;;1999.90;999.90;;;;;;;33.96;25.78;101921.75;5067844;28;20436;-74
2023/06/08 08:07:02;;;;;;;1999.90;999.90;;;;;;;34.62;25.70;101927.34;5088655;28;20077;-75
2023/06/08 08:09:27;;;;;;;1999.90;999.90;;;;;;;35.96;23.56;101933.22;5072302;28;20024;-74
2023/06/08 08:11:53;;;;;;;1999.90;999.90;;;;;;;34.15;24.72;101936.28;5071756;28;20035;-74
2023/06/08 08:14:18;;;;;;;1999.90;999.90;;;;;;;35.77;23.17;101938.81;5070759;28;20062;-74
2023/06/08 08:16:43;;;;;;;1999.90;999.90;;;;;;;32.90;25.42;101945.69;5071054;28;20557;-74
2023/06/08 08:19:09;;;;;;;1999.90;999.90;;;;;;;35.41;23.70;101944.22;5081409;28;20093;-74
2023/06/08 08:21:37;;;;;;;1999.90;999.90;;;;;;;34.65;23.77;101930.66;5058363;28;20369;-74
2023/06/08 08:24:03;;;;;;;1999.90;999.90;;;;;;;34.40;22.93;101944.84;5056034;28;20562;-74
2023/06/08 08:26:29;;;;;;;1999.90;999.90;;;;;;;35.94;23.29;101940.72;5085517;28;20116;-74
2023/06/08 08:28:56;;;;;;;1999.90;999.90;;;;;;;36.32;22.29;101941.34;5081031;28;20385;-74
2023/06/08 08:31:22;;;;;;;1999.90;999.90;;;;;;;36.09;22.27;101942.84;5065366;28;20119;-74
2023/06/08 08:33:47;;;;;;;1999.90;999.90;;;;;;;34.15;24.13;101941.69;5092942;28;20365;-74
2023/06/08 08:36:12;;;;;;;1999.90;999.90;;;;;;;34.05;23.91;101946.28;5075025;28;20423;-74
2023/06/08 08:38:40;;;;;;;1999.90;999.90;;;;;;;35.80;22.16;101952.94;5074615;28;20043;-74
2023/06/08 08:41:09;;;;;;;1999.90;999.90;;;;;;;36.73;20.96;101938.06;5098237;28;20480;-74
2023/06/08 08:43:43;;;;;;;1999.90;999.90;;;;;;;37.84;20.68;101945.28;5067114;28;20021;-75
2023/06/08 08:46:09;;;;;;;1999.90;999.90;;;;;;;36.06;22.05;101951.34;5055318;28;20020;-74
2023/06/08 08:48:42;;;;;;;1999.90;999.90;;;;;;;37.72;20.52;101951.22;5074690;28;20435;-73
2023/06/08 08:51:18;;;;;;;1999.90;999.90;;;;;;;38.45;20.03;101944.94;5092930;28;20034;-74
2023/06/08 08:53:48;;;;;;;1999.90;999.90;;;;;;;38.12;19.73;101946.84;5074581;28;20054;-74
2023/06/08 08:56:20;;;;;;;1999.90;999.90;;;;;;;36.67;21.58;101942.28;5072528;28;20058;-75
2023/06/08 08:58:47;;;;;;;1999.90;999.90;;;;;;;35.59;22.66;101942.38;5092160;28;20476;-75
2023/06/08 09:01:13;;;;;;;1999.90;999.90;;;;;;;36.62;22.00;101935.63;5072544;28;20028;-75
2023/06/08 09:03:39;;;;;;;1999.90;999.90;;;;;;;36.32;22.29;101943.25;5071327;28;20032;-75
2023/06/08 09:06:06;;;;;;;1999.90;999.90;;;;;;;37.78;20.95;101939.66;5072148;28;20035;-75
2023/06/08 09:08:31;;;;;;;1999.90;999.90;;;;;;;37.12;20.92;101939.44;5063561;28;20505;-75
2023/06/08 09:11:04;;;;;;;1999.90;999.90;;;;;;;35.27;22.11;101938.25;5072610;28;20111;-73
2023/06/08 09:13:30;;;;;;;1999.90;999.90;;;;;;;34.90;23.09;101941.88;5088583;28;20031;-75
2023/06/08 09:15:57;;;;;;;1999.90;999.90;;;;;;;36.99;20.78;101929.88;5057459;28;20024;-76
2023/06/08 09:18:22;;;;;;;1999.90;999.90;;;;;;;38.01;20.15;101935.22;5073757;28;20020;-74
2023/06/08 09:20:47;;;;;;;1999.90;999.90;;;;;;;38.27;20.21;101928.75;5075294;28;20039;-74
2023/06/08 09:23:17;;;;;;;1999.90;999.90;;;;;;;35.33;23.55;101931.38;5089188;28;20374;-73
2023/06/08 09:25:43;;;;;;;1999.90;999.90;;;;;;;36.16;22.46;101930.31;5073806;28;20528;-73
2023/06/08 09:28:17;;;;;;;1999.90;999.90;;;;;;;35.20;22.51;101937.16;5087731;28;20099;-73
2023/06/08 09:30:49;;;;;;;1999.90;999.90;;;;;;;34.80;23.76;101930.16;5055047;28;20404;-73
2023/06/08 09:33:23;;;;;;;;;;;;;;;35.69;22.57;101925.97;5075113;28;20063;-73
2023/06/08 09:36:04;;;;;;;1999.90;999.90;;;;;;;34.34;23.11;101924.56;5052443;28;19915;-73
2023/06/08 09:38:32;;;;;;;1999.90;999.90;;;;;;;33.24;24.95;101920.19;5080972;28;20486;-74
2023/06/08 09:41:19;;;;;;;1999.90;999.90;;;;;;;33.63;24.88;101921.13;5081242;28;20024;-74
2023/06/08 09:43:46;;;;;;;1999.90;999.90;;;;;;;34.43;23.41;101917.41;5074311;28;20028;-71
2023/06/08 09:46:16;;;;;;;1999.90;999.90;;;;;;;34.61;23.67;101921.09;5054135;28;20115;-73
2023/06/08 09:48:52;;;;;;;1999.90;999.90;;;;;;;34.02;24.62;101924.84;5070616;28;20463;-74
2023/06/08 09:51:18;;;;;;;1999.90;999.90;;;;;;;35.09;24.13;101918.31;5107541;28;20062;-73
2023/06/08 09:53:45;;;;;;;1999.90;999.90;;;;;;;34.88;23.72;101916.72;5092790;28;20081;-73
2023/06/08 09:56:10;;;;;;;1999.90;999.90;;;;;;;36.18;22.86;101906.53;5092030;28;20044;-74
2023/06/08 09:58:38;;;;;;;1999.90;999.90;;;;;;;36.84;22.08;101909.72;5074479;28;20033;-74
2023/06/08 10:01:08;;;;;;;1999.90;999.90;;;;;;;35.95;23.30;101912.47;5068449;28;20158;-74
2023/06/08 10:03:39;;;;;;;1999.90;999.90;;;;;;;36.21;22.79;101908.94;5039504;28;20032;-75
2023/06/08 10:06:09;;;;;;;1999.90;999.90;;;;;;;37.49;21.67;101908.22;5057770;28;20055;-74
2023/06/08 10:08:37;;;;;;;1999.90;999.90;;;;;;;36.83;22.49;101908.00;5052712;28;20111;-74
2023/06/08 10:11:03;;;;;;;1999.90;999.90;;;;;;;34.52;24.08;101915.69;5044120;28;20127;-73
2023/06/08 10:13:30;;;;;;;1999.90;999.90;;;;;;;36.18;22.81;101915.56;5038613;28;20728;-74
2023/06/08 10:15:55;;;;;;;1999.90;999.90;;;;;;;36.14;22.95;101907.88;5047141;28;20028;-74
2023/06/08 10:18:21;;;;;;;1999.90;999.90;;;;;;;34.16;25.06;101905.44;5038339;28;20507;-73
2023/06/08 10:20:46;;;;;;;1999.90;999.90;;;;;;;37.26;22.04;101906.13;5048223;28;20036;-73
2023/06/08 10:23:12;;;;;;;1999.90;999.90;;;;;;;36.99;23.27;101907.22;5046094;28;20029;-73
2023/06/08 10:25:40;;;;;;;1999.90;999.90;;;;;;;38.14;20.96;101901.13;5055810;28;20052;-73
2023/06/08 10:28:08;;;;;;;1999.90;999.90;;;;;;;36.50;22.51;101902.34;5061524;28;20021;-74
2023/06/08 10:30:44;;;;;;;1999.90;999.90;;;;;;;36.96;22.01;101896.63;5058781;28;20029;-73
2023/06/08 10:33:10;;;;;;;1999.90;999.90;;;;;;;37.63;21.64;101904.00;5065985;28;20044;-73
2023/06/08 10:35:40;;;;;;;1999.90;999.90;;;;;;;36.33;22.30;101891.38;5045667;28;20024;-74
2023/06/08 10:38:09;;;;;;;1999.90;999.90;;;;;;;35.31;23.94;101903.47;5035503;28;20036;-74
2023/06/08 10:40:49;;;;;;;1999.90;999.90;;;;;;;34.65;24.37;101902.63;5054798;28;20501;-74
2023/06/08 10:43:15;;;;;;;1999.90;999.90;;;;;;;37.81;22.15;101901.13;5032662;28;20056;-74
2023/06/08 10:45:45;;;;;;;1999.90;999.90;;;;;;;35.50;23.20;101895.22;5040100;28;20021;-74